UTY881 YTEE-YBBN
Flight info
| Callsign | UTY881 |
|---|---|
| Flight time | 1h 46m |
| Altitude | 35000 |
| Route | SARIK J89 UNVAT V327 IGUPI Y340 LAMUG Y177 SMOKA |
| Aircraft | F100/M-SDFIRWY/H |
Departure
| Time | 2026-05-04 02:00 |
|---|---|
| Airport | Trepell Airport (YTEE) |
Arrival
| Time | 2026-05-04 03:46 |
|---|---|
| Airport | Brisbane International Airport (YBBN) |
| Time | Latitude | Longitude | Altitude | Speed | Heading |
|---|---|---|---|---|---|
| 2026-05-04 01:52 | -21.83991 | 140.89388 | 892 ft | 0 kts | 101° |
| 2026-05-04 01:54 | -21.83991 | 140.89389 | 892 ft | 1 kts | 101° |
| 2026-05-04 01:54 | -21.83997 | 140.89397 | 881 ft | 2 kts | 153° |
| 2026-05-04 01:55 | -21.84006 | 140.89395 | 881 ft | 0 kts | 230° |
| 2026-05-04 01:55 | -21.84006 | 140.89384 | 881 ft | 2 kts | 285° |
| 2026-05-04 01:55 | -21.83994 | 140.89369 | 882 ft | 4 kts | 329° |
| 2026-05-04 01:55 | -21.83966 | 140.89350 | 882 ft | 5 kts | 316° |
| 2026-05-04 01:56 | -21.83944 | 140.89318 | 880 ft | 6 kts | 304° |
| 2026-05-04 01:56 | -21.83944 | 140.89278 | 883 ft | 7 kts | 240° |
| 2026-05-04 01:56 | -21.83980 | 140.89221 | 882 ft | 11 kts | 235° |
| 2026-05-04 01:56 | -21.84012 | 140.89142 | 881 ft | 12 kts | 299° |
| 2026-05-04 01:57 | -21.83947 | 140.89086 | 882 ft | 14 kts | 325° |
| 2026-05-04 01:57 | -21.83841 | 140.89005 | 884 ft | 31 kts | 324° |
| 2026-05-04 01:57 | -21.83600 | 140.88816 | 890 ft | 45 kts | 324° |
| 2026-05-04 01:57 | -21.83356 | 140.88627 | 893 ft | 42 kts | 324° |
| 2026-05-04 01:58 | -21.83127 | 140.88449 | 893 ft | 40 kts | 324° |
| 2026-05-04 01:58 | -21.82931 | 140.88296 | 897 ft | 23 kts | 324° |
| 2026-05-04 01:58 | -21.82843 | 140.88211 | 898 ft | 9 kts | 24° |
| 2026-05-04 01:58 | -21.82851 | 140.88237 | 897 ft | 5 kts | 142° |
| 2026-05-04 01:59 | -21.82856 | 140.88241 | 897 ft | 0 kts | 143° |
| 2026-05-04 01:59 | -21.82857 | 140.88241 | 897 ft | 4 kts | 143° |
| 2026-05-04 01:59 | -21.83279 | 140.88565 | 893 ft | 105 kts | 144° |
| 2026-05-04 01:59 | -21.83765 | 140.88938 | 895 ft | 146 kts | 145° |
| 2026-05-04 02:00 | -21.84598 | 140.89629 | 1340 ft | 159 kts | 137° |
| 2026-05-04 02:00 | -21.85038 | 140.91168 | 1876 ft | 181 kts | 71° |
| 2026-05-04 02:00 | -21.84654 | 140.91956 | 2425 ft | 178 kts | 64° |
| 2026-05-04 02:00 | -21.84405 | 140.93255 | 2786 ft | 189 kts | 102° |
| 2026-05-04 02:01 | -21.84691 | 140.94718 | 2991 ft | 214 kts | 102° |
| 2026-05-04 02:01 | -21.85025 | 140.96377 | 3218 ft | 238 kts | 100° |
| 2026-05-04 02:01 | -21.85387 | 140.98209 | 3415 ft | 262 kts | 101° |
| 2026-05-04 02:01 | -21.85777 | 141.00181 | 3803 ft | 273 kts | 101° |
| 2026-05-04 02:02 | -21.86164 | 141.02149 | 4693 ft | 261 kts | 102° |
| 2026-05-04 02:02 | -21.86531 | 141.04016 | 5614 ft | 253 kts | 102° |
| 2026-05-04 02:02 | -21.86905 | 141.05923 | 5992 ft | 269 kts | 103° |
| 2026-05-04 02:02 | -21.87306 | 141.07950 | 6292 ft | 283 kts | 102° |
| 2026-05-04 02:03 | -21.87712 | 141.10015 | 6950 ft | 278 kts | 104° |
| 2026-05-04 02:03 | -21.88107 | 141.12025 | 7718 ft | 273 kts | 105° |
| 2026-05-04 02:03 | -21.88508 | 141.14051 | 8175 ft | 282 kts | 104° |
| 2026-05-04 02:03 | -21.88927 | 141.16164 | 8480 ft | 294 kts | 104° |
| 2026-05-04 02:04 | -21.89356 | 141.18332 | 8955 ft | 297 kts | 104° |
| 2026-05-04 02:04 | -21.89784 | 141.20498 | 9606 ft | 295 kts | 104° |
| 2026-05-04 02:04 | -21.90219 | 141.22697 | 10062 ft | 301 kts | 104° |
| 2026-05-04 02:04 | -21.90668 | 141.24954 | 10211 ft | 316 kts | 104° |
| 2026-05-04 02:05 | -21.91140 | 141.27324 | 10376 ft | 331 kts | 104° |
| 2026-05-04 02:05 | -21.91632 | 141.29795 | 10536 ft | 345 kts | 104° |
| 2026-05-04 02:05 | -21.92146 | 141.32370 | 10745 ft | 357 kts | 104° |
| 2026-05-04 02:05 | -21.92673 | 141.35020 | 11092 ft | 364 kts | 104° |
| 2026-05-04 02:06 | -21.93201 | 141.37671 | 11777 ft | 359 kts | 104° |
| 2026-05-04 02:06 | -21.93720 | 141.40285 | 12486 ft | 356 kts | 104° |
| 2026-05-04 02:06 | -21.94245 | 141.42922 | 12809 ft | 366 kts | 104° |
| 2026-05-04 02:06 | -21.94789 | 141.45642 | 13103 ft | 376 kts | 104° |
| 2026-05-04 02:07 | -21.95340 | 141.48399 | 13650 ft | 377 kts | 104° |
| 2026-05-04 02:07 | -21.95891 | 141.51159 | 14214 ft | 377 kts | 103° |
| 2026-05-04 02:07 | -21.96447 | 141.53939 | 14597 ft | 383 kts | 103° |
| 2026-05-04 02:07 | -21.97012 | 141.56762 | 14960 ft | 388 kts | 103° |
| 2026-05-04 02:08 | -21.97585 | 141.59620 | 15346 ft | 393 kts | 103° |
| 2026-05-04 02:08 | -21.98164 | 141.62512 | 15711 ft | 397 kts | 102° |
| 2026-05-04 02:08 | -21.98752 | 141.65438 | 16084 ft | 402 kts | 102° |
| 2026-05-04 02:08 | -21.99345 | 141.68394 | 16447 ft | 406 kts | 102° |
| 2026-05-04 02:09 | -21.99947 | 141.71385 | 16808 ft | 410 kts | 102° |
| 2026-05-04 02:09 | -22.00632 | 141.74385 | 17124 ft | 416 kts | 109° |
| 2026-05-04 02:09 | -22.01763 | 141.77265 | 17464 ft | 419 kts | 116° |
| 2026-05-04 02:09 | -22.03125 | 141.80051 | 17857 ft | 422 kts | 120° |
| 2026-05-04 02:10 | -22.04586 | 141.82814 | 18154 ft | 427 kts | 121° |
| 2026-05-04 02:10 | -22.06101 | 141.85590 | 18450 ft | 431 kts | 121° |
| 2026-05-04 02:10 | -22.07641 | 141.88378 | 18763 ft | 434 kts | 121° |
| 2026-05-04 02:10 | -22.09191 | 141.91174 | 19085 ft | 435 kts | 121° |
| 2026-05-04 02:11 | -22.10752 | 141.93984 | 19390 ft | 438 kts | 121° |
| 2026-05-04 02:11 | -22.12321 | 141.96806 | 19689 ft | 440 kts | 121° |
| 2026-05-04 02:11 | -22.13901 | 141.99649 | 19990 ft | 443 kts | 121° |
| 2026-05-04 02:11 | -22.15511 | 142.02545 | 20279 ft | 445 kts | 121° |
| 2026-05-04 02:12 | -22.17107 | 142.05415 | 20581 ft | 447 kts | 121° |
| 2026-05-04 02:12 | -22.18713 | 142.08301 | 20875 ft | 449 kts | 121° |
| 2026-05-04 02:12 | -22.20324 | 142.11198 | 21155 ft | 452 kts | 121° |
| 2026-05-04 02:12 | -22.21946 | 142.14112 | 21434 ft | 454 kts | 121° |
| 2026-05-04 02:13 | -22.23575 | 142.17038 | 21711 ft | 456 kts | 121° |
| 2026-05-04 02:13 | -22.25211 | 142.19976 | 21989 ft | 458 kts | 121° |
| 2026-05-04 02:13 | -22.26856 | 142.22929 | 22243 ft | 460 kts | 121° |
| 2026-05-04 02:13 | -22.28508 | 142.25894 | 22501 ft | 462 kts | 121° |
| 2026-05-04 02:14 | -22.30170 | 142.28875 | 22751 ft | 464 kts | 121° |
| 2026-05-04 02:14 | -22.31838 | 142.31866 | 23015 ft | 466 kts | 121° |
| 2026-05-04 02:14 | -22.33513 | 142.34869 | 23268 ft | 468 kts | 121° |
| 2026-05-04 02:14 | -22.35199 | 142.37890 | 23517 ft | 470 kts | 121° |
| 2026-05-04 02:15 | -22.36890 | 142.40919 | 23754 ft | 472 kts | 121° |
| 2026-05-04 02:15 | -22.38592 | 142.43968 | 23968 ft | 475 kts | 121° |
| 2026-05-04 02:15 | -22.40300 | 142.47024 | 24192 ft | 476 kts | 121° |
| 2026-05-04 02:15 | -22.42018 | 142.50098 | 24427 ft | 479 kts | 121° |
| 2026-05-04 02:16 | -22.43744 | 142.53187 | 24639 ft | 481 kts | 121° |
| 2026-05-04 02:16 | -22.45477 | 142.56286 | 24877 ft | 483 kts | 121° |
| 2026-05-04 02:16 | -22.47220 | 142.59403 | 25114 ft | 485 kts | 121° |
| 2026-05-04 02:16 | -22.48968 | 142.62529 | 25345 ft | 487 kts | 121° |
| 2026-05-04 02:17 | -22.50729 | 142.65674 | 25549 ft | 490 kts | 121° |
| 2026-05-04 02:17 | -22.52494 | 142.68828 | 25778 ft | 492 kts | 121° |
| 2026-05-04 02:17 | -22.54270 | 142.71999 | 25993 ft | 494 kts | 121° |
| 2026-05-04 02:17 | -22.56054 | 142.75182 | 26199 ft | 496 kts | 121° |
| 2026-05-04 02:18 | -22.57843 | 142.78375 | 26418 ft | 497 kts | 122° |
| 2026-05-04 02:18 | -22.59637 | 142.81576 | 26686 ft | 497 kts | 122° |
| 2026-05-04 02:18 | -22.61428 | 142.84769 | 26982 ft | 496 kts | 122° |
| 2026-05-04 02:18 | -22.63220 | 142.87964 | 27241 ft | 496 kts | 122° |
| 2026-05-04 02:19 | -22.65014 | 142.91161 | 27503 ft | 497 kts | 122° |
| 2026-05-04 02:19 | -22.66806 | 142.94355 | 27761 ft | 497 kts | 122° |
| 2026-05-04 02:19 | -22.68600 | 142.97550 | 28023 ft | 496 kts | 122° |
| 2026-05-04 02:19 | -22.70417 | 143.00785 | 28277 ft | 496 kts | 122° |
| 2026-05-04 02:20 | -22.72211 | 143.03979 | 28563 ft | 495 kts | 122° |
| 2026-05-04 02:20 | -22.74001 | 143.07164 | 28855 ft | 494 kts | 122° |
| 2026-05-04 02:20 | -22.75787 | 143.10341 | 29098 ft | 495 kts | 122° |
| 2026-05-04 02:20 | -22.77579 | 143.13527 | 29316 ft | 495 kts | 122° |
| 2026-05-04 02:21 | -22.79370 | 143.16710 | 29540 ft | 495 kts | 122° |
| 2026-05-04 02:21 | -22.81166 | 143.19902 | 29735 ft | 496 kts | 122° |
| 2026-05-04 02:21 | -22.82965 | 143.23097 | 29962 ft | 496 kts | 122° |
| 2026-05-04 02:21 | -22.84760 | 143.26285 | 30197 ft | 495 kts | 122° |
| 2026-05-04 02:22 | -22.86555 | 143.29471 | 30391 ft | 495 kts | 122° |
| 2026-05-04 02:22 | -22.88348 | 143.32653 | 30562 ft | 495 kts | 122° |
| 2026-05-04 02:22 | -22.90146 | 143.35842 | 30722 ft | 496 kts | 122° |
| 2026-05-04 02:22 | -22.91943 | 143.39029 | 30891 ft | 496 kts | 123° |
| 2026-05-04 02:23 | -22.93744 | 143.42223 | 31049 ft | 496 kts | 123° |
| 2026-05-04 02:23 | -22.95547 | 143.45416 | 31221 ft | 496 kts | 123° |
| 2026-05-04 02:23 | -22.97347 | 143.48605 | 31373 ft | 496 kts | 123° |
| 2026-05-04 02:23 | -22.99150 | 143.51799 | 31537 ft | 496 kts | 123° |
| 2026-05-04 02:24 | -23.00950 | 143.54986 | 31719 ft | 495 kts | 123° |
| 2026-05-04 02:24 | -23.02752 | 143.58174 | 31880 ft | 495 kts | 123° |
| 2026-05-04 02:24 | -23.04554 | 143.61362 | 32022 ft | 496 kts | 123° |
| 2026-05-04 02:24 | -23.06357 | 143.64550 | 32165 ft | 496 kts | 123° |
| 2026-05-04 02:25 | -23.08163 | 143.67743 | 32311 ft | 496 kts | 123° |
| 2026-05-04 02:25 | -23.09966 | 143.70930 | 32462 ft | 496 kts | 123° |
| 2026-05-04 02:25 | -23.11773 | 143.74121 | 32608 ft | 496 kts | 123° |
| 2026-05-04 02:25 | -23.13576 | 143.77306 | 32764 ft | 495 kts | 123° |
| 2026-05-04 02:26 | -23.15373 | 143.80479 | 32928 ft | 495 kts | 123° |
| 2026-05-04 02:26 | -23.17183 | 143.83672 | 33075 ft | 494 kts | 123° |
| 2026-05-04 02:26 | -23.18985 | 143.86851 | 33220 ft | 494 kts | 123° |
| 2026-05-04 02:26 | -23.20788 | 143.90032 | 33356 ft | 494 kts | 123° |
| 2026-05-04 02:27 | -23.22587 | 143.93204 | 33495 ft | 493 kts | 123° |
| 2026-05-04 02:27 | -23.24391 | 143.96383 | 33632 ft | 493 kts | 123° |
| 2026-05-04 02:27 | -23.26215 | 143.99596 | 33776 ft | 493 kts | 123° |
| 2026-05-04 02:27 | -23.28013 | 144.02763 | 33914 ft | 492 kts | 123° |
| 2026-05-04 02:28 | -23.29812 | 144.05930 | 34047 ft | 491 kts | 123° |
| 2026-05-04 02:28 | -23.31607 | 144.09089 | 34165 ft | 491 kts | 123° |
| 2026-05-04 02:28 | -23.35206 | 144.15420 | 34246 ft | 494 kts | 123° |
| 2026-05-04 02:29 | -23.38838 | 144.21802 | 34252 ft | 497 kts | 123° |
| 2026-05-04 02:29 | -23.42460 | 144.28238 | 34253 ft | 499 kts | 120° |
| 2026-05-04 02:30 | -23.45606 | 144.34981 | 34261 ft | 500 kts | 116° |
| 2026-05-04 02:30 | -23.48574 | 144.41822 | 34261 ft | 500 kts | 115° |
| 2026-05-04 02:31 | -23.51530 | 144.48675 | 34260 ft | 500 kts | 115° |
| 2026-05-04 02:31 | -23.54492 | 144.55519 | 34253 ft | 499 kts | 115° |
| 2026-05-04 02:32 | -23.57459 | 144.62350 | 34253 ft | 499 kts | 116° |
| 2026-05-04 02:32 | -23.59930 | 144.68025 | 34253 ft | 499 kts | 116° |
| 2026-05-04 02:33 | -23.62928 | 144.74897 | 34254 ft | 499 kts | 116° |
| 2026-05-04 02:33 | -23.65905 | 144.81713 | 34250 ft | 497 kts | 116° |
| 2026-05-04 02:34 | -23.68884 | 144.88522 | 34251 ft | 497 kts | 116° |
| 2026-05-04 02:34 | -23.71864 | 144.95328 | 34253 ft | 497 kts | 116° |
| 2026-05-04 02:35 | -23.74850 | 145.02138 | 34253 ft | 497 kts | 116° |
| 2026-05-04 02:35 | -23.77834 | 145.08938 | 34250 ft | 497 kts | 116° |
| 2026-05-04 02:36 | -23.80820 | 145.15738 | 34247 ft | 497 kts | 116° |
| 2026-05-04 02:36 | -23.83809 | 145.22537 | 34246 ft | 496 kts | 116° |
| 2026-05-04 02:37 | -23.86802 | 145.29337 | 34246 ft | 497 kts | 116° |
| 2026-05-04 02:37 | -23.89795 | 145.36133 | 34247 ft | 497 kts | 116° |
| 2026-05-04 02:38 | -23.92795 | 145.42935 | 34251 ft | 496 kts | 116° |
| 2026-05-04 02:38 | -23.95795 | 145.49732 | 34254 ft | 497 kts | 116° |
| 2026-05-04 02:39 | -23.98797 | 145.56528 | 34254 ft | 496 kts | 116° |
| 2026-05-04 02:39 | -24.01801 | 145.63321 | 34255 ft | 496 kts | 116° |
| 2026-05-04 02:40 | -24.04811 | 145.70121 | 34272 ft | 498 kts | 116° |
| 2026-05-04 02:40 | -24.07860 | 145.77003 | 34269 ft | 499 kts | 116° |
| 2026-05-04 02:41 | -24.10886 | 145.83825 | 34267 ft | 498 kts | 116° |
| 2026-05-04 02:41 | -24.13915 | 145.90648 | 34271 ft | 498 kts | 116° |
| 2026-05-04 02:42 | -24.16947 | 145.97469 | 34275 ft | 498 kts | 116° |
| 2026-05-04 02:42 | -24.19981 | 146.04290 | 34272 ft | 498 kts | 117° |
| 2026-05-04 02:43 | -24.23015 | 146.11104 | 34270 ft | 498 kts | 117° |
| 2026-05-04 02:43 | -24.26054 | 146.17921 | 34270 ft | 498 kts | 117° |
| 2026-05-04 02:44 | -24.29095 | 146.24737 | 34271 ft | 498 kts | 117° |
| 2026-05-04 02:44 | -24.32138 | 146.31552 | 34269 ft | 498 kts | 117° |
| 2026-05-04 02:45 | -24.35177 | 146.38350 | 34266 ft | 497 kts | 117° |
| 2026-05-04 02:45 | -24.38219 | 146.45147 | 34269 ft | 497 kts | 117° |
| 2026-05-04 02:46 | -24.41187 | 146.51987 | 34267 ft | 497 kts | 115° |
| 2026-05-04 02:46 | -24.44004 | 146.58909 | 34270 ft | 497 kts | 114° |
| 2026-05-04 02:47 | -24.46793 | 146.65842 | 34272 ft | 497 kts | 114° |
| 2026-05-04 02:47 | -24.49584 | 146.72780 | 34271 ft | 497 kts | 114° |
| 2026-05-04 02:48 | -24.52378 | 146.79718 | 34276 ft | 497 kts | 114° |
| 2026-05-04 02:48 | -24.55193 | 146.86699 | 34273 ft | 496 kts | 114° |
| 2026-05-04 02:49 | -24.57992 | 146.93630 | 34272 ft | 496 kts | 114° |
| 2026-05-04 02:49 | -24.60792 | 147.00556 | 34275 ft | 496 kts | 114° |
| 2026-05-04 02:50 | -24.63594 | 147.07480 | 34273 ft | 496 kts | 114° |
| 2026-05-04 02:50 | -24.66398 | 147.14401 | 34261 ft | 495 kts | 114° |
| 2026-05-04 02:51 | -24.69207 | 147.21328 | 34280 ft | 498 kts | 114° |
| 2026-05-04 02:51 | -24.72027 | 147.28273 | 34275 ft | 497 kts | 115° |
| 2026-05-04 02:52 | -24.74851 | 147.35220 | 34282 ft | 497 kts | 115° |
| 2026-05-04 02:52 | -24.77675 | 147.42159 | 34283 ft | 496 kts | 115° |
| 2026-05-04 02:53 | -24.80499 | 147.49091 | 34286 ft | 496 kts | 115° |
| 2026-05-04 02:53 | -24.83325 | 147.56021 | 34317 ft | 496 kts | 115° |
| 2026-05-04 02:54 | -24.86155 | 147.62955 | 34408 ft | 498 kts | 115° |
| 2026-05-04 02:54 | -24.89002 | 147.69920 | 34407 ft | 498 kts | 115° |
| 2026-05-04 02:55 | -24.93265 | 147.80335 | 34402 ft | 497 kts | 115° |
| 2026-05-04 02:56 | -24.96133 | 147.87334 | 34407 ft | 497 kts | 115° |
| 2026-05-04 02:56 | -24.98986 | 147.94287 | 34398 ft | 499 kts | 115° |
| 2026-05-04 02:57 | -25.01841 | 148.01237 | 34392 ft | 497 kts | 115° |
| 2026-05-04 02:57 | -25.04689 | 148.08166 | 34392 ft | 496 kts | 115° |
| 2026-05-04 02:58 | -25.07540 | 148.15093 | 34396 ft | 496 kts | 115° |
| 2026-05-04 02:58 | -25.10393 | 148.22019 | 34385 ft | 496 kts | 115° |
| 2026-05-04 02:59 | -25.13248 | 148.28941 | 34387 ft | 495 kts | 115° |
| 2026-05-04 02:59 | -25.16104 | 148.35861 | 34397 ft | 495 kts | 115° |
| 2026-05-04 03:00 | -25.18960 | 148.42772 | 34385 ft | 496 kts | 115° |
| 2026-05-04 03:00 | -25.21827 | 148.49699 | 34379 ft | 494 kts | 116° |
| 2026-05-04 03:01 | -25.24687 | 148.56602 | 34383 ft | 494 kts | 116° |
| 2026-05-04 03:01 | -25.27551 | 148.63507 | 34385 ft | 494 kts | 116° |
| 2026-05-04 03:02 | -25.30414 | 148.70405 | 34384 ft | 494 kts | 116° |
| 2026-05-04 03:02 | -25.33291 | 148.77327 | 34398 ft | 496 kts | 116° |
| 2026-05-04 03:03 | -25.36173 | 148.84253 | 34395 ft | 495 kts | 116° |
| 2026-05-04 03:03 | -25.39055 | 148.91172 | 34400 ft | 495 kts | 116° |
| 2026-05-04 03:04 | -25.41955 | 148.98130 | 34401 ft | 494 kts | 116° |
| 2026-05-04 03:04 | -25.44839 | 149.05041 | 34400 ft | 495 kts | 116° |
| 2026-05-04 03:05 | -25.47241 | 149.10790 | 34401 ft | 495 kts | 116° |
| 2026-05-04 03:05 | -25.50135 | 149.17707 | 34403 ft | 494 kts | 116° |
| 2026-05-04 03:06 | -25.53029 | 149.24619 | 34398 ft | 495 kts | 116° |
| 2026-05-04 03:06 | -25.55930 | 149.31537 | 34394 ft | 495 kts | 116° |
| 2026-05-04 03:07 | -25.58834 | 149.38457 | 34398 ft | 495 kts | 116° |
| 2026-05-04 03:07 | -25.61741 | 149.45377 | 34398 ft | 495 kts | 116° |
| 2026-05-04 03:08 | -25.64651 | 149.52296 | 34394 ft | 495 kts | 116° |
| 2026-05-04 03:08 | -25.67565 | 149.59215 | 34391 ft | 495 kts | 116° |
| 2026-05-04 03:09 | -25.70478 | 149.66127 | 34389 ft | 494 kts | 116° |
| 2026-05-04 03:09 | -25.73409 | 149.73071 | 34385 ft | 494 kts | 116° |
| 2026-05-04 03:10 | -25.76323 | 149.79971 | 34387 ft | 494 kts | 117° |
| 2026-05-04 03:10 | -25.79242 | 149.86871 | 34388 ft | 494 kts | 117° |
| 2026-05-04 03:11 | -25.81887 | 149.93904 | 34389 ft | 494 kts | 111° |
| 2026-05-04 03:11 | -25.84276 | 150.01055 | 34389 ft | 494 kts | 111° |
| 2026-05-04 03:12 | -25.86643 | 150.08211 | 34386 ft | 494 kts | 111° |
| 2026-05-04 03:12 | -25.89023 | 150.15366 | 34385 ft | 494 kts | 111° |
| 2026-05-04 03:13 | -25.91412 | 150.22509 | 34381 ft | 493 kts | 111° |
| 2026-05-04 03:13 | -25.93807 | 150.29643 | 34384 ft | 493 kts | 111° |
| 2026-05-04 03:14 | -25.96215 | 150.36791 | 34402 ft | 495 kts | 111° |
| 2026-05-04 03:14 | -25.98634 | 150.43958 | 34404 ft | 495 kts | 111° |
| 2026-05-04 03:15 | -26.01057 | 150.51126 | 34406 ft | 495 kts | 111° |
| 2026-05-04 03:15 | -26.03483 | 150.58288 | 34411 ft | 495 kts | 111° |
| 2026-05-04 03:16 | -26.05916 | 150.65456 | 34405 ft | 495 kts | 111° |
| 2026-05-04 03:16 | -26.08350 | 150.72623 | 34406 ft | 495 kts | 112° |
| 2026-05-04 03:17 | -26.10803 | 150.79832 | 34401 ft | 494 kts | 112° |
| 2026-05-04 03:17 | -26.13236 | 150.86975 | 34406 ft | 494 kts | 112° |
| 2026-05-04 03:18 | -26.15650 | 150.94125 | 34411 ft | 494 kts | 111° |
| 2026-05-04 03:18 | -26.18011 | 151.01312 | 34410 ft | 494 kts | 111° |
| 2026-05-04 03:19 | -26.20358 | 151.08496 | 34410 ft | 494 kts | 111° |
| 2026-05-04 03:19 | -26.22706 | 151.15679 | 34411 ft | 494 kts | 111° |
| 2026-05-04 03:20 | -26.25058 | 151.22865 | 34412 ft | 494 kts | 111° |
| 2026-05-04 03:20 | -26.27412 | 151.30050 | 34414 ft | 494 kts | 111° |
| 2026-05-04 03:21 | -26.29770 | 151.37234 | 34413 ft | 493 kts | 111° |
| 2026-05-04 03:21 | -26.32128 | 151.44410 | 34414 ft | 493 kts | 111° |
| 2026-05-04 03:22 | -26.34492 | 151.51589 | 34411 ft | 493 kts | 111° |
| 2026-05-04 03:22 | -26.36858 | 151.58766 | 34414 ft | 493 kts | 111° |
| 2026-05-04 03:23 | -26.39227 | 151.65941 | 34418 ft | 492 kts | 111° |
| 2026-05-04 03:23 | -26.41597 | 151.73111 | 34416 ft | 492 kts | 111° |
| 2026-05-04 03:24 | -26.43970 | 151.80276 | 34411 ft | 492 kts | 112° |
| 2026-05-04 03:24 | -26.46346 | 151.87439 | 34411 ft | 492 kts | 112° |
| 2026-05-04 03:25 | -26.48745 | 151.94652 | 34415 ft | 491 kts | 112° |
| 2026-05-04 03:25 | -26.51140 | 152.01793 | 34411 ft | 491 kts | 112° |
| 2026-05-04 03:26 | -26.53546 | 152.08934 | 34408 ft | 491 kts | 112° |
| 2026-05-04 03:26 | -26.55868 | 152.15811 | 34326 ft | 490 kts | 112° |
| 2026-05-04 03:26 | -26.57042 | 152.19280 | 33471 ft | 500 kts | 112° |
| 2026-05-04 03:27 | -26.58285 | 152.22943 | 32488 ft | 501 kts | 111° |
| 2026-05-04 03:27 | -26.59505 | 152.26540 | 31526 ft | 489 kts | 111° |
| 2026-05-04 03:27 | -26.60693 | 152.30047 | 30580 ft | 477 kts | 111° |
| 2026-05-04 03:27 | -26.61873 | 152.33455 | 29563 ft | 461 kts | 115° |
| 2026-05-04 03:28 | -26.63492 | 152.36482 | 28500 ft | 457 kts | 129° |
| 2026-05-04 03:28 | -26.65566 | 152.39328 | 27519 ft | 487 kts | 134° |
| 2026-05-04 03:28 | -26.67918 | 152.42123 | 26584 ft | 497 kts | 137° |
| 2026-05-04 03:28 | -26.70322 | 152.44807 | 25618 ft | 478 kts | 138° |
| 2026-05-04 03:29 | -26.72694 | 152.47383 | 24679 ft | 468 kts | 139° |
| 2026-05-04 03:29 | -26.74973 | 152.49830 | 23851 ft | 441 kts | 139° |
| 2026-05-04 03:29 | -26.77151 | 152.52158 | 22608 ft | 425 kts | 139° |
| 2026-05-04 03:29 | -26.79255 | 152.54395 | 21365 ft | 411 kts | 139° |
| 2026-05-04 03:30 | -26.81301 | 152.56559 | 20171 ft | 399 kts | 139° |
| 2026-05-04 03:30 | -26.83294 | 152.58656 | 19019 ft | 388 kts | 139° |
| 2026-05-04 03:30 | -26.85245 | 152.60696 | 17827 ft | 379 kts | 139° |
| 2026-05-04 03:30 | -26.87149 | 152.62679 | 16577 ft | 369 kts | 138° |
| 2026-05-04 03:31 | -26.89008 | 152.64610 | 15374 ft | 360 kts | 138° |
| 2026-05-04 03:31 | -26.90825 | 152.66492 | 14217 ft | 350 kts | 137° |
| 2026-05-04 03:31 | -26.92588 | 152.68319 | 12999 ft | 341 kts | 137° |
| 2026-05-04 03:31 | -26.94306 | 152.70099 | 11767 ft | 331 kts | 137° |
| 2026-05-04 03:32 | -26.95972 | 152.71825 | 10588 ft | 321 kts | 137° |
| 2026-05-04 03:32 | -26.97620 | 152.73507 | 9425 ft | 326 kts | 140° |
| 2026-05-04 03:32 | -26.99529 | 152.74796 | 9151 ft | 310 kts | 156° |
| 2026-05-04 03:32 | -27.01499 | 152.75593 | 9106 ft | 286 kts | 164° |
| 2026-05-04 03:33 | -27.03362 | 152.76100 | 8969 ft | 269 kts | 169° |
| 2026-05-04 03:33 | -27.05161 | 152.76461 | 8950 ft | 255 kts | 171° |
| 2026-05-04 03:33 | -27.06976 | 152.76759 | 8961 ft | 274 kts | 172° |
| 2026-05-04 03:33 | -27.08920 | 152.77043 | 8797 ft | 287 kts | 173° |
| 2026-05-04 03:34 | -27.10912 | 152.77321 | 8449 ft | 287 kts | 173° |
| 2026-05-04 03:34 | -27.12885 | 152.77628 | 8176 ft | 284 kts | 169° |
| 2026-05-04 03:34 | -27.14826 | 152.78103 | 8185 ft | 286 kts | 166° |
| 2026-05-04 03:34 | -27.16762 | 152.78657 | 8051 ft | 287 kts | 165° |
| 2026-05-04 03:35 | -27.18688 | 152.79236 | 7770 ft | 285 kts | 164° |
| 2026-05-04 03:35 | -27.20594 | 152.79818 | 7413 ft | 283 kts | 164° |
| 2026-05-04 03:35 | -27.22482 | 152.80393 | 7204 ft | 279 kts | 164° |
| 2026-05-04 03:35 | -27.24367 | 152.80962 | 7196 ft | 283 kts | 164° |
| 2026-05-04 03:36 | -27.26271 | 152.81534 | 7013 ft | 282 kts | 163° |
| 2026-05-04 03:36 | -27.28162 | 152.82102 | 6712 ft | 280 kts | 163° |
| 2026-05-04 03:36 | -27.30040 | 152.82666 | 6356 ft | 280 kts | 164° |
| 2026-05-04 03:36 | -27.31863 | 152.83303 | 6287 ft | 273 kts | 160° |
| 2026-05-04 03:37 | -27.33665 | 152.84030 | 6289 ft | 277 kts | 158° |
| 2026-05-04 03:37 | -27.35472 | 152.84792 | 6303 ft | 278 kts | 159° |
| 2026-05-04 03:37 | -27.37280 | 152.85560 | 6259 ft | 278 kts | 157° |
| 2026-05-04 03:37 | -27.39083 | 152.86333 | 6047 ft | 276 kts | 158° |
| 2026-05-04 03:38 | -27.40878 | 152.87102 | 5745 ft | 274 kts | 158° |
| 2026-05-04 03:38 | -27.42656 | 152.87865 | 5418 ft | 273 kts | 159° |
| 2026-05-04 03:38 | -27.43857 | 152.88379 | 5185 ft | 272 kts | 158° |
| 2026-05-04 03:38 | -27.45620 | 152.89134 | 4848 ft | 271 kts | 158° |
| 2026-05-04 03:39 | -27.47372 | 152.89884 | 4504 ft | 270 kts | 158° |
| 2026-05-04 03:39 | -27.49118 | 152.90633 | 4163 ft | 266 kts | 158° |
| 2026-05-04 03:39 | -27.50849 | 152.91376 | 3883 ft | 262 kts | 158° |
| 2026-05-04 03:39 | -27.52499 | 152.92091 | 3728 ft | 247 kts | 158° |
| 2026-05-04 03:40 | -27.54075 | 152.92777 | 3577 ft | 243 kts | 158° |
| 2026-05-04 03:40 | -27.55645 | 152.93492 | 3216 ft | 243 kts | 144° |
| 2026-05-04 03:40 | -27.56724 | 152.94883 | 3064 ft | 235 kts | 117° |
| 2026-05-04 03:40 | -27.57267 | 152.96626 | 3021 ft | 236 kts | 101° |
| 2026-05-04 03:41 | -27.57462 | 152.98387 | 2993 ft | 217 kts | 94° |
| 2026-05-04 03:41 | -27.57561 | 152.99998 | 2969 ft | 196 kts | 83° |
| 2026-05-04 03:41 | -27.57147 | 153.01354 | 3006 ft | 176 kts | 58° |
| 2026-05-04 03:41 | -27.56375 | 153.02328 | 2987 ft | 159 kts | 40° |
| 2026-05-04 03:42 | -27.55483 | 153.03039 | 2977 ft | 160 kts | 33° |
| 2026-05-04 03:42 | -27.54447 | 153.03696 | 2973 ft | 179 kts | 28° |
| 2026-05-04 03:42 | -27.53406 | 153.04289 | 2798 ft | 158 kts | 29° |
| 2026-05-04 03:42 | -27.52410 | 153.04861 | 2641 ft | 167 kts | 30° |
| 2026-05-04 03:43 | -27.51382 | 153.05451 | 2419 ft | 165 kts | 29° |
| 2026-05-04 03:43 | -27.50357 | 153.06040 | 2195 ft | 164 kts | 30° |
| 2026-05-04 03:43 | -27.49324 | 153.06632 | 1983 ft | 165 kts | 28° |
| 2026-05-04 03:43 | -27.48308 | 153.07215 | 1764 ft | 163 kts | 29° |
| 2026-05-04 03:44 | -27.47325 | 153.07780 | 1579 ft | 145 kts | 29° |
| 2026-05-04 03:44 | -27.46501 | 153.08252 | 1313 ft | 130 kts | 30° |
| 2026-05-04 03:44 | -27.45692 | 153.08716 | 1223 ft | 132 kts | 30° |
| 2026-05-04 03:44 | -27.44879 | 153.09184 | 1050 ft | 130 kts | 30° |
| 2026-05-04 03:45 | -27.44031 | 153.09669 | 915 ft | 141 kts | 30° |
| 2026-05-04 03:45 | -27.43173 | 153.10160 | 670 ft | 132 kts | 31° |
| 2026-05-04 03:45 | -27.42404 | 153.10597 | 482 ft | 123 kts | 31° |
| 2026-05-04 03:45 | -27.41584 | 153.11072 | 355 ft | 137 kts | 31° |
| 2026-05-04 03:46 | -27.40746 | 153.11552 | 177 ft | 134 kts | 30° |
| 2026-05-04 03:46 | -27.39905 | 153.12033 | 28 ft | 127 kts | 30° |
| 2026-05-04 03:46 | -27.39237 | 153.12421 | 17 ft | 90 kts | 27° |
| 2026-05-04 03:46 | -27.38856 | 153.12624 | 19 ft | 46 kts | 19° |
| 2026-05-04 03:47 | -27.38610 | 153.12659 | 18 ft | 28 kts | 359° |
| 2026-05-04 03:47 | -27.38483 | 153.12651 | 17 ft | 16 kts | 356° |
| 2026-05-04 03:47 | -27.38376 | 153.12615 | 17 ft | 17 kts | 313° |
| 2026-05-04 03:47 | -27.38388 | 153.12539 | 17 ft | 11 kts | 214° |
| 2026-05-04 03:48 | -27.38459 | 153.12495 | 17 ft | 12 kts | 206° |
| 2026-05-04 03:48 | -27.38537 | 153.12452 | 16 ft | 13 kts | 207° |
| 2026-05-04 03:48 | -27.38626 | 153.12401 | 15 ft | 15 kts | 207° |
| 2026-05-04 03:48 | -27.38727 | 153.12344 | 15 ft | 17 kts | 207° |
| 2026-05-04 03:49 | -27.38793 | 153.12265 | 15 ft | 8 kts | 276° |
| 2026-05-04 03:49 | -27.38777 | 153.12208 | 17 ft | 6 kts | 313° |
| 2026-05-04 03:49 | -27.38736 | 153.12199 | 15 ft | 7 kts | 349° |
| 2026-05-04 03:49 | -27.38724 | 153.12196 | 17 ft | 1 kts | 348° |
| 2026-05-04 03:50 | -27.38720 | 153.12195 | 17 ft | 0 kts | 348° |